sensor_id;sensor_type;location;lat;lon;timestamp;P1;durP1;ratioP1;P2;durP2;ratioP2
18102;SDS011;9178;51.120;6.192;2022-07-29T00:01:43;8.00;;;1.50;;
18102;SDS011;9178;51.120;6.192;2022-07-29T00:04:10;11.85;;;1.33;;
18102;SDS011;9178;51.120;6.192;2022-07-29T00:06:37;5.97;;;1.50;;
18102;SDS011;9178;51.120;6.192;2022-07-29T00:09:04;6.53;;;1.30;;
18102;SDS011;9178;51.120;6.192;2022-07-29T00:11:32;3.38;;;1.42;;
18102;SDS011;9178;51.120;6.192;2022-07-29T00:13:59;2.65;;;1.35;;
18102;SDS011;9178;51.120;6.192;2022-07-29T00:16:26;4.68;;;1.40;;
18102;SDS011;9178;51.120;6.192;2022-07-29T00:18:53;8.73;;;1.42;;
18102;SDS011;9178;51.120;6.192;2022-07-29T00:21:20;5.55;;;1.58;;
18102;SDS011;9178;51.120;6.192;2022-07-29T00:23:47;5.80;;;1.30;;
18102;SDS011;9178;51.120;6.192;2022-07-29T00:26:13;5.10;;;1.48;;
18102;SDS011;9178;51.120;6.192;2022-07-29T00:28:42;3.88;;;1.42;;
18102;SDS011;9178;51.120;6.192;2022-07-29T00:31:09;5.32;;;1.60;;
18102;SDS011;9178;51.120;6.192;2022-07-29T00:33:35;6.13;;;1.38;;
18102;SDS011;9178;51.120;6.192;2022-07-29T00:36:02;4.38;;;1.40;;
18102;SDS011;9178;51.120;6.192;2022-07-29T00:38:29;5.90;;;2.00;;
18102;SDS011;9178;51.120;6.192;2022-07-29T00:40:56;6.45;;;1.50;;
18102;SDS011;9178;51.120;6.192;2022-07-29T00:43:23;8.77;;;1.60;;
18102;SDS011;9178;51.120;6.192;2022-07-29T00:45:51;1.67;;;1.15;;
18102;SDS011;9178;51.120;6.192;2022-07-29T00:48:18;2.33;;;1.30;;
18102;SDS011;9178;51.120;6.192;2022-07-29T00:50:45;3.10;;;1.25;;
18102;SDS011;9178;51.120;6.192;2022-07-29T00:53:12;4.18;;;1.50;;
18102;SDS011;9178;51.120;6.192;2022-07-29T00:55:39;4.68;;;1.30;;
18102;SDS011;9178;51.120;6.192;2022-07-29T00:58:06;3.03;;;1.17;;
18102;SDS011;9178;51.120;6.192;2022-07-29T01:00:33;2.75;;;1.50;;
18102;SDS011;9178;51.120;6.192;2022-07-29T01:03:01;3.53;;;1.50;;
18102;SDS011;9178;51.120;6.192;2022-07-29T01:05:28;4.22;;;1.40;;
18102;SDS011;9178;51.120;6.192;2022-07-29T01:07:56;2.20;;;1.20;;
18102;SDS011;9178;51.120;6.192;2022-07-29T01:10:25;5.28;;;1.30;;
18102;SDS011;9178;51.120;6.192;2022-07-29T01:12:53;3.20;;;1.60;;
18102;SDS011;9178;51.120;6.192;2022-07-29T01:15:21;3.22;;;1.02;;
18102;SDS011;9178;51.120;6.192;2022-07-29T01:17:50;3.10;;;1.17;;
18102;SDS011;9178;51.120;6.192;2022-07-29T01:20:25;2.65;;;1.30;;
18102;SDS011;9178;51.120;6.192;2022-07-29T01:29:04;2.33;;;1.00;;
18102;SDS011;9178;51.120;6.192;2022-07-29T01:31:35;2.85;;;1.13;;
18102;SDS011;9178;51.120;6.192;2022-07-29T01:34:09;5.00;;;1.30;;
18102;SDS011;9178;51.120;6.192;2022-07-29T01:36:43;2.30;;;1.20;;
18102;SDS011;9178;51.120;6.192;2022-07-29T01:39:14;2.70;;;1.15;;
18102;SDS011;9178;51.120;6.192;2022-07-29T01:41:48;4.20;;;1.20;;
18102;SDS011;9178;51.120;6.192;2022-07-29T01:44:22;2.80;;;1.00;;
18102;SDS011;9178;51.120;6.192;2022-07-29T01:46:54;2.90;;;1.17;;
18102;SDS011;9178;51.120;6.192;2022-07-29T01:49:25;4.15;;;1.30;;
18102;SDS011;9178;51.120;6.192;2022-07-29T01:51:57;4.50;;;1.20;;
18102;SDS011;9178;51.120;6.192;2022-07-29T01:54:29;3.95;;;1.05;;
18102;SDS011;9178;51.120;6.192;2022-07-29T01:57:00;4.13;;;1.43;;
18102;SDS011;9178;51.120;6.192;2022-07-29T01:59:31;2.25;;;0.95;;
18102;SDS011;9178;51.120;6.192;2022-07-29T02:01:59;3.17;;;1.40;;
18102;SDS011;9178;51.120;6.192;2022-07-29T02:04:27;2.70;;;1.20;;
18102;SDS011;9178;51.120;6.192;2022-07-29T02:06:57;6.13;;;1.40;;
18102;SDS011;9178;51.120;6.192;2022-07-29T02:09:33;4.47;;;1.50;;
18102;SDS011;9178;51.120;6.192;2022-07-29T02:12:03;6.43;;;1.80;;
18102;SDS011;9178;51.120;6.192;2022-07-29T02:14:36;4.90;;;2.13;;
18102;SDS011;9178;51.120;6.192;2022-07-29T02:17:05;6.07;;;1.97;;
18102;SDS011;9178;51.120;6.192;2022-07-29T02:19:33;3.83;;;1.90;;
18102;SDS011;9178;51.120;6.192;2022-07-29T02:22:03;4.67;;;1.40;;
18102;SDS011;9178;51.120;6.192;2022-07-29T02:24:32;4.97;;;2.00;;
18102;SDS011;9178;51.120;6.192;2022-07-29T02:27:01;5.57;;;1.80;;
18102;SDS011;9178;51.120;6.192;2022-07-29T02:29:30;4.17;;;1.80;;
18102;SDS011;9178;51.120;6.192;2022-07-29T02:31:59;3.53;;;1.63;;
18102;SDS011;9178;51.120;6.192;2022-07-29T02:34:29;7.47;;;2.20;;
18102;SDS011;9178;51.120;6.192;2022-07-29T02:36:57;5.90;;;2.00;;
18102;SDS011;9178;51.120;6.192;2022-07-29T02:39:24;4.77;;;1.90;;
18102;SDS011;9178;51.120;6.192;2022-07-29T02:41:55;6.27;;;2.20;;
18102;SDS011;9178;51.120;6.192;2022-07-29T02:44:28;4.03;;;1.97;;
18102;SDS011;9178;51.120;6.192;2022-07-29T02:47:06;4.90;;;2.10;;
18102;SDS011;9178;51.120;6.192;2022-07-29T02:49:38;5.30;;;2.30;;
18102;SDS011;9178;51.120;6.192;2022-07-29T02:52:08;6.43;;;2.20;;
18102;SDS011;9178;51.120;6.192;2022-07-29T02:54:39;8.00;;;2.50;;
18102;SDS011;9178;51.120;6.192;2022-07-29T02:57:11;11.50;;;2.80;;
18102;SDS011;9178;51.120;6.192;2022-07-29T02:59:44;7.47;;;2.50;;
18102;SDS011;9178;51.120;6.192;2022-07-29T03:02:14;10.53;;;2.50;;
18102;SDS011;9178;51.120;6.192;2022-07-29T03:04:42;6.80;;;2.00;;
18102;SDS011;9178;51.120;6.192;2022-07-29T03:07:10;9.30;;;2.20;;
18102;SDS011;9178;51.120;6.192;2022-07-29T03:09:40;5.43;;;2.37;;
18102;SDS011;9178;51.120;6.192;2022-07-29T03:12:08;9.43;;;2.40;;
18102;SDS011;9178;51.120;6.192;2022-07-29T03:14:36;4.07;;;2.50;;
18102;SDS011;9178;51.120;6.192;2022-07-29T03:17:04;4.37;;;1.80;;
18102;SDS011;9178;51.120;6.192;2022-07-29T03:19:32;5.10;;;2.17;;
18102;SDS011;9178;51.120;6.192;2022-07-29T03:22:00;9.40;;;2.60;;
18102;SDS011;9178;51.120;6.192;2022-07-29T03:24:28;3.40;;;2.20;;
18102;SDS011;9178;51.120;6.192;2022-07-29T03:26:57;3.57;;;2.23;;
18102;SDS011;9178;51.120;6.192;2022-07-29T03:29:24;4.73;;;2.57;;
18102;SDS011;9178;51.120;6.192;2022-07-29T03:31:51;4.67;;;2.00;;
18102;SDS011;9178;51.120;6.192;2022-07-29T03:34:18;5.77;;;2.43;;
18102;SDS011;9178;51.120;6.192;2022-07-29T03:36:47;5.83;;;2.60;;
18102;SDS011;9178;51.120;6.192;2022-07-29T03:39:15;5.93;;;2.47;;
18102;SDS011;9178;51.120;6.192;2022-07-29T03:41:44;11.20;;;2.70;;
18102;SDS011;9178;51.120;6.192;2022-07-29T03:44:13;13.57;;;3.20;;
18102;SDS011;9178;51.120;6.192;2022-07-29T03:46:42;5.73;;;2.53;;
18102;SDS011;9178;51.120;6.192;2022-07-29T03:49:10;5.13;;;2.67;;
18102;SDS011;9178;51.120;6.192;2022-07-29T03:51:40;6.50;;;2.90;;
18102;SDS011;9178;51.120;6.192;2022-07-29T03:54:08;4.60;;;2.47;;
18102;SDS011;9178;51.120;6.192;2022-07-29T03:56:37;8.13;;;3.27;;
18102;SDS011;9178;51.120;6.192;2022-07-29T03:59:06;5.43;;;2.50;;
18102;SDS011;9178;51.120;6.192;2022-07-29T04:01:33;4.30;;;2.80;;
18102;SDS011;9178;51.120;6.192;2022-07-29T04:04:01;3.93;;;2.97;;
18102;SDS011;9178;51.120;6.192;2022-07-29T04:06:31;3.97;;;2.50;;
18102;SDS011;9178;51.120;6.192;2022-07-29T04:09:07;3.93;;;2.23;;
18102;SDS011;9178;51.120;6.192;2022-07-29T04:11:35;6.73;;;2.80;;
18102;SDS011;9178;51.120;6.192;2022-07-29T04:14:04;5.73;;;2.60;;
18102;SDS011;9178;51.120;6.192;2022-07-29T04:16:32;3.70;;;3.03;;
18102;SDS011;9178;51.120;6.192;2022-07-29T04:18:59;5.27;;;2.60;;
18102;SDS011;9178;51.120;6.192;2022-07-29T04:21:27;4.63;;;3.37;;
18102;SDS011;9178;51.120;6.192;2022-07-29T04:23:53;4.97;;;3.37;;
18102;SDS011;9178;51.120;6.192;2022-07-29T04:26:22;4.33;;;2.70;;
18102;SDS011;9178;51.120;6.192;2022-07-29T04:28:49;6.17;;;3.47;;
18102;SDS011;9178;51.120;6.192;2022-07-29T04:31:15;3.83;;;3.07;;
18102;SDS011;9178;51.120;6.192;2022-07-29T04:33:42;6.20;;;2.80;;
18102;SDS011;9178;51.120;6.192;2022-07-29T04:36:09;7.07;;;3.60;;
18102;SDS011;9178;51.120;6.192;2022-07-29T04:38:37;5.83;;;2.90;;
18102;SDS011;9178;51.120;6.192;2022-07-29T04:41:04;3.63;;;3.23;;
18102;SDS011;9178;51.120;6.192;2022-07-29T04:43:33;9.90;;;3.70;;
18102;SDS011;9178;51.120;6.192;2022-07-29T04:46:00;4.10;;;3.20;;
18102;SDS011;9178;51.120;6.192;2022-07-29T04:48:26;7.27;;;3.17;;
18102;SDS011;9178;51.120;6.192;2022-07-29T04:50:53;6.37;;;3.43;;
18102;SDS011;9178;51.120;6.192;2022-07-29T04:53:20;6.20;;;3.00;;
18102;SDS011;9178;51.120;6.192;2022-07-29T04:55:47;8.60;;;2.93;;
18102;SDS011;9178;51.120;6.192;2022-07-29T04:58:14;3.47;;;3.10;;
18102;SDS011;9178;51.120;6.192;2022-07-29T05:00:42;5.43;;;2.83;;
18102;SDS011;9178;51.120;6.192;2022-07-29T05:03:09;4.10;;;3.00;;
18102;SDS011;9178;51.120;6.192;2022-07-29T05:05:36;4.50;;;3.00;;
18102;SDS011;9178;51.120;6.192;2022-07-29T05:08:03;5.20;;;3.17;;
18102;SDS011;9178;51.120;6.192;2022-07-29T05:10:30;6.13;;;3.50;;
18102;SDS011;9178;51.120;6.192;2022-07-29T05:12:57;4.83;;;3.37;;
18102;SDS011;9178;51.120;6.192;2022-07-29T05:15:24;5.07;;;3.23;;
18102;SDS011;9178;51.120;6.192;2022-07-29T05:17:52;3.47;;;3.10;;
18102;SDS011;9178;51.120;6.192;2022-07-29T05:20:19;6.87;;;3.30;;
18102;SDS011;9178;51.120;6.192;2022-07-29T05:22:51;4.97;;;3.13;;
18102;SDS011;9178;51.120;6.192;2022-07-29T05:25:18;9.77;;;3.70;;
18102;SDS011;9178;51.120;6.192;2022-07-29T05:27:44;4.97;;;3.37;;
18102;SDS011;9178;51.120;6.192;2022-07-29T05:30:11;3.67;;;2.97;;
18102;SDS011;9178;51.120;6.192;2022-07-29T05:32:38;4.83;;;3.60;;
18102;SDS011;9178;51.120;6.192;2022-07-29T05:35:07;4.77;;;3.40;;
18102;SDS011;9178;51.120;6.192;2022-07-29T05:37:34;6.67;;;3.50;;
18102;SDS011;9178;51.120;6.192;2022-07-29T05:40:01;5.07;;;4.00;;
18102;SDS011;9178;51.120;6.192;2022-07-29T05:42:28;8.03;;;4.10;;
18102;SDS011;9178;51.120;6.192;2022-07-29T05:44:55;5.13;;;3.80;;
18102;SDS011;9178;51.120;6.192;2022-07-29T05:47:22;5.30;;;3.50;;
18102;SDS011;9178;51.120;6.192;2022-07-29T05:49:49;5.53;;;3.57;;
18102;SDS011;9178;51.120;6.192;2022-07-29T05:52:17;5.87;;;3.43;;
18102;SDS011;9178;51.120;6.192;2022-07-29T05:54:44;5.47;;;3.40;;
18102;SDS011;9178;51.120;6.192;2022-07-29T05:57:14;7.23;;;3.13;;
18102;SDS011;9178;51.120;6.192;2022-07-29T05:59:42;4.87;;;3.40;;
18102;SDS011;9178;51.120;6.192;2022-07-29T06:02:08;6.13;;;3.60;;
18102;SDS011;9178;51.120;6.192;2022-07-29T06:04:36;6.83;;;3.53;;
18102;SDS011;9178;51.120;6.192;2022-07-29T06:07:03;6.40;;;3.83;;
18102;SDS011;9178;51.120;6.192;2022-07-29T06:09:31;5.30;;;3.30;;
18102;SDS011;9178;51.120;6.192;2022-07-29T06:11:58;3.57;;;2.87;;
18102;SDS011;9178;51.120;6.192;2022-07-29T06:14:25;6.07;;;3.33;;
18102;SDS011;9178;51.120;6.192;2022-07-29T06:16:53;4.90;;;3.10;;
18102;SDS011;9178;51.120;6.192;2022-07-29T06:19:20;4.47;;;3.40;;
18102;SDS011;9178;51.120;6.192;2022-07-29T06:21:47;5.83;;;3.03;;
18102;SDS011;9178;51.120;6.192;2022-07-29T06:24:14;5.83;;;4.13;;
18102;SDS011;9178;51.120;6.192;2022-07-29T06:26:42;4.43;;;3.27;;
18102;SDS011;9178;51.120;6.192;2022-07-29T06:29:09;5.47;;;3.43;;
18102;SDS011;9178;51.120;6.192;2022-07-29T06:31:37;5.90;;;3.43;;
18102;SDS011;9178;51.120;6.192;2022-07-29T06:34:05;5.40;;;3.17;;
18102;SDS011;9178;51.120;6.192;2022-07-29T06:36:34;5.10;;;3.10;;
18102;SDS011;9178;51.120;6.192;2022-07-29T06:39:03;6.77;;;2.93;;
18102;SDS011;9178;51.120;6.192;2022-07-29T06:41:31;6.43;;;3.30;;
18102;SDS011;9178;51.120;6.192;2022-07-29T06:43:59;6.30;;;3.20;;
18102;SDS011;9178;51.120;6.192;2022-07-29T06:46:26;6.33;;;3.33;;
18102;SDS011;9178;51.120;6.192;2022-07-29T06:48:53;3.63;;;2.93;;
18102;SDS011;9178;51.120;6.192;2022-07-29T06:51:21;5.43;;;3.13;;
18102;SDS011;9178;51.120;6.192;2022-07-29T06:53:47;6.80;;;3.27;;
18102;SDS011;9178;51.120;6.192;2022-07-29T06:56:15;4.83;;;2.90;;
18102;SDS011;9178;51.120;6.192;2022-07-29T06:58:41;7.03;;;3.57;;
18102;SDS011;9178;51.120;6.192;2022-07-29T07:01:10;5.13;;;3.50;;
18102;SDS011;9178;51.120;6.192;2022-07-29T07:03:36;6.00;;;3.50;;
18102;SDS011;9178;51.120;6.192;2022-07-29T07:06:03;4.07;;;3.53;;
18102;SDS011;9178;51.120;6.192;2022-07-29T07:08:30;5.90;;;3.70;;
18102;SDS011;9178;51.120;6.192;2022-07-29T07:10:57;6.57;;;3.53;;
18102;SDS011;9178;51.120;6.192;2022-07-29T07:13:24;5.03;;;3.30;;
18102;SDS011;9178;51.120;6.192;2022-07-29T07:15:51;7.63;;;3.30;;
18102;SDS011;9178;51.120;6.192;2022-07-29T07:18:19;6.03;;;3.60;;
18102;SDS011;9178;51.120;6.192;2022-07-29T07:20:46;4.27;;;3.30;;
18102;SDS011;9178;51.120;6.192;2022-07-29T07:23:13;5.53;;;3.47;;
18102;SDS011;9178;51.120;6.192;2022-07-29T07:25:40;5.60;;;3.17;;
18102;SDS011;9178;51.120;6.192;2022-07-29T07:28:07;6.27;;;3.47;;
18102;SDS011;9178;51.120;6.192;2022-07-29T07:30:34;3.90;;;3.10;;
18102;SDS011;9178;51.120;6.192;2022-07-29T07:33:01;3.90;;;3.23;;
18102;SDS011;9178;51.120;6.192;2022-07-29T07:35:29;5.17;;;3.00;;
18102;SDS011;9178;51.120;6.192;2022-07-29T07:37:56;5.73;;;3.23;;
18102;SDS011;9178;51.120;6.192;2022-07-29T07:40:24;6.10;;;3.30;;
18102;SDS011;9178;51.120;6.192;2022-07-29T07:42:51;5.93;;;3.00;;
18102;SDS011;9178;51.120;6.192;2022-07-29T07:45:17;6.23;;;3.30;;
18102;SDS011;9178;51.120;6.192;2022-07-29T07:47:44;7.53;;;3.40;;
18102;SDS011;9178;51.120;6.192;2022-07-29T07:50:11;7.77;;;3.57;;
18102;SDS011;9178;51.120;6.192;2022-07-29T07:52:46;7.33;;;3.57;;
18102;SDS011;9178;51.120;6.192;2022-07-29T07:55:14;6.73;;;3.40;;
18102;SDS011;9178;51.120;6.192;2022-07-29T07:57:41;9.52;;;3.60;;
18102;SDS011;9178;51.120;6.192;2022-07-29T08:00:08;4.78;;;3.60;;
18102;SDS011;9178;51.120;6.192;2022-07-29T08:02:36;6.77;;;3.80;;
18102;SDS011;9178;51.120;6.192;2022-07-29T08:05:04;6.68;;;3.42;;
18102;SDS011;9178;51.120;6.192;2022-07-29T08:07:32;8.07;;;4.03;;
18102;SDS011;9178;51.120;6.192;2022-07-29T08:10:00;6.30;;;3.35;;
18102;SDS011;9178;51.120;6.192;2022-07-29T08:12:27;4.93;;;3.45;;
18102;SDS011;9178;51.120;6.192;2022-07-29T08:14:54;6.47;;;3.85;;
18102;SDS011;9178;51.120;6.192;2022-07-29T08:17:20;5.47;;;3.10;;
18102;SDS011;9178;51.120;6.192;2022-07-29T08:19:47;5.72;;;3.17;;
18102;SDS011;9178;51.120;6.192;2022-07-29T08:22:14;4.97;;;3.63;;
18102;SDS011;9178;51.120;6.192;2022-07-29T08:24:41;4.78;;;3.70;;
18102;SDS011;9178;51.120;6.192;2022-07-29T08:27:19;5.30;;;3.25;;
18102;SDS011;9178;51.120;6.192;2022-07-29T08:29:46;4.85;;;3.13;;
18102;SDS011;9178;51.120;6.192;2022-07-29T08:32:13;5.80;;;3.13;;
18102;SDS011;9178;51.120;6.192;2022-07-29T08:34:40;6.60;;;3.13;;
18102;SDS011;9178;51.120;6.192;2022-07-29T08:37:07;4.88;;;3.00;;
18102;SDS011;9178;51.120;6.192;2022-07-29T08:39:34;5.30;;;3.40;;
18102;SDS011;9178;51.120;6.192;2022-07-29T08:42:01;5.55;;;3.25;;
18102;SDS011;9178;51.120;6.192;2022-07-29T08:44:29;4.90;;;3.28;;
18102;SDS011;9178;51.120;6.192;2022-07-29T08:46:57;5.82;;;2.90;;
18102;SDS011;9178;51.120;6.192;2022-07-29T08:49:24;4.57;;;3.17;;
18102;SDS011;9178;51.120;6.192;2022-07-29T08:51:51;4.45;;;3.03;;
18102;SDS011;9178;51.120;6.192;2022-07-29T08:54:19;5.20;;;3.08;;
18102;SDS011;9178;51.120;6.192;2022-07-29T08:56:49;8.25;;;3.40;;
18102;SDS011;9178;51.120;6.192;2022-07-29T08:59:16;8.00;;;2.65;;
18102;SDS011;9178;51.120;6.192;2022-07-29T09:01:47;3.30;;;2.60;;
18102;SDS011;9178;51.120;6.192;2022-07-29T09:04:16;6.70;;;2.95;;
18102;SDS011;9178;51.120;6.192;2022-07-29T09:06:46;4.78;;;3.08;;
18102;SDS011;9178;51.120;6.192;2022-07-29T09:09:15;6.13;;;2.60;;
18102;SDS011;9178;51.120;6.192;2022-07-29T09:11:42;4.35;;;2.70;;
18102;SDS011;9178;51.120;6.192;2022-07-29T09:14:11;5.25;;;2.60;;
18102;SDS011;9178;51.120;6.192;2022-07-29T09:16:49;4.72;;;2.67;;
18102;SDS011;9178;51.120;6.192;2022-07-29T09:19:19;4.00;;;2.72;;
18102;SDS011;9178;51.120;6.192;2022-07-29T09:21:47;2.88;;;2.50;;
18102;SDS011;9178;51.120;6.192;2022-07-29T09:27:10;4.75;;;2.67;;
18102;SDS011;9178;51.120;6.192;2022-07-29T09:29:45;7.32;;;2.78;;
18102;SDS011;9178;51.120;6.192;2022-07-29T09:32:13;4.40;;;2.55;;
18102;SDS011;9178;51.120;6.192;2022-07-29T09:34:40;3.45;;;2.80;;
18102;SDS011;9178;51.120;6.192;2022-07-29T09:37:07;5.05;;;2.95;;
18102;SDS011;9178;51.120;6.192;2022-07-29T09:39:34;5.90;;;2.72;;
18102;SDS011;9178;51.120;6.192;2022-07-29T09:42:09;10.48;;;2.88;;
18102;SDS011;9178;51.120;6.192;2022-07-29T09:44:40;6.70;;;2.92;;
18102;SDS011;9178;51.120;6.192;2022-07-29T09:47:09;6.57;;;2.95;;
18102;SDS011;9178;51.120;6.192;2022-07-29T09:49:49;5.97;;;2.67;;
18102;SDS011;9178;51.120;6.192;2022-07-29T09:52:17;4.13;;;2.33;;
18102;SDS011;9178;51.120;6.192;2022-07-29T09:54:44;5.07;;;2.60;;
18102;SDS011;9178;51.120;6.192;2022-07-29T09:57:21;4.18;;;2.55;;
18102;SDS011;9178;51.120;6.192;2022-07-29T09:59:55;5.90;;;2.50;;
18102;SDS011;9178;51.120;6.192;2022-07-29T10:02:27;4.45;;;2.60;;
18102;SDS011;9178;51.120;6.192;2022-07-29T10:04:57;4.18;;;2.30;;
18102;SDS011;9178;51.120;6.192;2022-07-29T10:07:24;4.13;;;2.50;;
18102;SDS011;9178;51.120;6.192;2022-07-29T10:09:52;6.25;;;2.42;;
18102;SDS011;9178;51.120;6.192;2022-07-29T10:12:20;3.25;;;2.40;;
18102;SDS011;9178;51.120;6.192;2022-07-29T10:14:48;5.35;;;2.30;;
18102;SDS011;9178;51.120;6.192;2022-07-29T10:17:16;3.63;;;2.40;;
18102;SDS011;9178;51.120;6.192;2022-07-29T10:19:44;7.55;;;2.58;;
18102;SDS011;9178;51.120;6.192;2022-07-29T10:22:12;5.07;;;2.60;;
18102;SDS011;9178;51.120;6.192;2022-07-29T10:24:39;3.55;;;1.85;;
18102;SDS011;9178;51.120;6.192;2022-07-29T10:27:07;3.50;;;2.33;;
18102;SDS011;9178;51.120;6.192;2022-07-29T10:29:34;5.25;;;2.28;;
18102;SDS011;9178;51.120;6.192;2022-07-29T10:32:08;3.50;;;2.70;;
18102;SDS011;9178;51.120;6.192;2022-07-29T10:35:01;2.90;;;2.20;;
18102;SDS011;9178;51.120;6.192;2022-07-29T10:37:50;5.72;;;2.50;;
18102;SDS011;9178;51.120;6.192;2022-07-29T10:40:32;6.55;;;2.83;;
18102;SDS011;9178;51.120;6.192;2022-07-29T10:43:31;5.40;;;2.42;;
18102;SDS011;9178;51.120;6.192;2022-07-29T10:46:02;3.97;;;2.60;;
18102;SDS011;9178;51.120;6.192;2022-07-29T10:48:30;6.30;;;2.60;;
18102;SDS011;9178;51.120;6.192;2022-07-29T10:50:57;5.15;;;3.20;;
18102;SDS011;9178;51.120;6.192;2022-07-29T10:53:45;4.78;;;2.97;;
18102;SDS011;9178;51.120;6.192;2022-07-29T10:56:22;5.82;;;2.63;;
18102;SDS011;9178;51.120;6.192;2022-07-29T11:01:53;5.57;;;2.40;;
18102;SDS011;9178;51.120;6.192;2022-07-29T11:07:28;4.75;;;2.60;;
18102;SDS011;9178;51.120;6.192;2022-07-29T11:12:49;4.15;;;2.42;;
18102;SDS011;9178;51.120;6.192;2022-07-29T11:15:17;5.53;;;2.30;;
18102;SDS011;9178;51.120;6.192;2022-07-29T11:20:35;6.50;;;2.95;;
18102;SDS011;9178;51.120;6.192;2022-07-29T11:23:23;5.10;;;2.22;;
18102;SDS011;9178;51.120;6.192;2022-07-29T11:28:47;4.75;;;2.50;;
18102;SDS011;9178;51.120;6.192;2022-07-29T11:31:18;2.78;;;2.08;;
18102;SDS011;9178;51.120;6.192;2022-07-29T11:33:57;7.05;;;2.60;;
18102;SDS011;9178;51.120;6.192;2022-07-29T11:39:42;7.10;;;2.50;;
18102;SDS011;9178;51.120;6.192;2022-07-29T11:45:08;3.55;;;2.10;;
18102;SDS011;9178;51.120;6.192;2022-07-29T11:47:37;3.50;;;2.45;;
18102;SDS011;9178;51.120;6.192;2022-07-29T11:50:07;3.83;;;2.40;;
18102;SDS011;9178;51.120;6.192;2022-07-29T11:52:36;4.93;;;2.70;;
18102;SDS011;9178;51.120;6.192;2022-07-29T11:55:09;3.47;;;2.33;;
18102;SDS011;9178;51.120;6.192;2022-07-29T11:57:37;3.80;;;2.38;;
18102;SDS011;9178;51.120;6.192;2022-07-29T12:00:13;3.95;;;1.88;;
18102;SDS011;9178;51.120;6.192;2022-07-29T12:02:48;5.35;;;2.22;;
18102;SDS011;9178;51.120;6.192;2022-07-29T12:05:15;3.42;;;2.00;;
18102;SDS011;9178;51.120;6.192;2022-07-29T12:07:42;4.43;;;2.20;;
18102;SDS011;9178;51.120;6.192;2022-07-29T12:10:09;3.25;;;1.77;;
18102;SDS011;9178;51.120;6.192;2022-07-29T12:12:36;2.13;;;1.73;;
18102;SDS011;9178;51.120;6.192;2022-07-29T12:15:15;3.00;;;2.10;;
18102;SDS011;9178;51.120;6.192;2022-07-29T12:17:45;3.85;;;1.70;;
18102;SDS011;9178;51.120;6.192;2022-07-29T12:20:13;7.93;;;2.20;;
18102;SDS011;9178;51.120;6.192;2022-07-29T12:22:47;6.38;;;1.60;;
18102;SDS011;9178;51.120;6.192;2022-07-29T12:25:14;4.07;;;1.40;;
18102;SDS011;9178;51.120;6.192;2022-07-29T12:27:42;2.95;;;1.50;;
18102;SDS011;9178;51.120;6.192;2022-07-29T12:30:10;4.75;;;1.40;;
18102;SDS011;9178;51.120;6.192;2022-07-29T12:32:40;5.97;;;1.40;;
18102;SDS011;9178;51.120;6.192;2022-07-29T12:35:08;2.35;;;1.50;;
18102;SDS011;9178;51.120;6.192;2022-07-29T12:37:37;3.33;;;1.60;;
18102;SDS011;9178;51.120;6.192;2022-07-29T12:40:06;6.72;;;1.63;;
18102;SDS011;9178;51.120;6.192;2022-07-29T12:42:34;4.30;;;1.63;;
18102;SDS011;9178;51.120;6.192;2022-07-29T12:45:02;1.75;;;1.05;;
18102;SDS011;9178;51.120;6.192;2022-07-29T12:47:30;1.38;;;1.27;;
18102;SDS011;9178;51.120;6.192;2022-07-29T12:50:09;3.17;;;1.30;;
18102;SDS011;9178;51.120;6.192;2022-07-29T12:52:39;3.78;;;1.38;;
18102;SDS011;9178;51.120;6.192;2022-07-29T12:55:06;4.07;;;1.20;;
18102;SDS011;9178;51.120;6.192;2022-07-29T12:57:44;1.95;;;1.30;;
18102;SDS011;9178;51.120;6.192;2022-07-29T13:00:12;2.40;;;1.10;;
18102;SDS011;9178;51.120;6.192;2022-07-29T13:02:40;2.33;;;1.50;;
18102;SDS011;9178;51.120;6.192;2022-07-29T13:05:10;1.85;;;1.35;;
18102;SDS011;9178;51.120;6.192;2022-07-29T13:07:38;1.83;;;1.40;;
18102;SDS011;9178;51.120;6.192;2022-07-29T13:10:12;2.65;;;1.25;;
18102;SDS011;9178;51.120;6.192;2022-07-29T13:15:29;1.95;;;1.30;;
18102;SDS011;9178;51.120;6.192;2022-07-29T13:17:56;2.30;;;1.27;;
18102;SDS011;9178;51.120;6.192;2022-07-29T13:20:25;3.20;;;1.45;;
18102;SDS011;9178;51.120;6.192;2022-07-29T13:22:54;2.85;;;1.10;;
18102;SDS011;9178;51.120;6.192;2022-07-29T13:25:25;3.45;;;1.50;;
18102;SDS011;9178;51.120;6.192;2022-07-29T13:27:53;3.70;;;1.30;;
18102;SDS011;9178;51.120;6.192;2022-07-29T13:30:20;3.55;;;1.10;;
18102;SDS011;9178;51.120;6.192;2022-07-29T13:32:49;2.60;;;1.23;;
18102;SDS011;9178;51.120;6.192;2022-07-29T13:35:16;4.10;;;1.20;;
18102;SDS011;9178;51.120;6.192;2022-07-29T13:37:45;5.63;;;1.42;;
18102;SDS011;9178;51.120;6.192;2022-07-29T13:40:12;2.10;;;1.02;;
18102;SDS011;9178;51.120;6.192;2022-07-29T13:42:40;2.40;;;1.10;;
18102;SDS011;9178;51.120;6.192;2022-07-29T13:45:07;2.05;;;1.55;;
18102;SDS011;9178;51.120;6.192;2022-07-29T13:47:35;2.90;;;1.50;;
18102;SDS011;9178;51.120;6.192;2022-07-29T13:50:02;1.48;;;1.17;;
18102;SDS011;9178;51.120;6.192;2022-07-29T13:52:31;5.68;;;1.60;;
18102;SDS011;9178;51.120;6.192;2022-07-29T13:54:59;1.80;;;1.20;;
18102;SDS011;9178;51.120;6.192;2022-07-29T13:57:26;2.20;;;1.23;;
18102;SDS011;9178;51.120;6.192;2022-07-29T13:59:53;5.78;;;1.50;;
18102;SDS011;9178;51.120;6.192;2022-07-29T14:02:21;1.63;;;1.50;;
18102;SDS011;9178;51.120;6.192;2022-07-29T14:04:48;2.05;;;1.42;;
18102;SDS011;9178;51.120;6.192;2022-07-29T14:07:14;3.00;;;1.48;;
18102;SDS011;9178;51.120;6.192;2022-07-29T14:09:42;3.55;;;1.23;;
18102;SDS011;9178;51.120;6.192;2022-07-29T14:12:10;2.42;;;1.30;;
18102;SDS011;9178;51.120;6.192;2022-07-29T14:14:37;1.55;;;1.20;;
18102;SDS011;9178;51.120;6.192;2022-07-29T14:17:04;2.88;;;1.05;;
18102;SDS011;9178;51.120;6.192;2022-07-29T14:19:32;2.00;;;1.40;;
18102;SDS011;9178;51.120;6.192;2022-07-29T14:22:00;1.83;;;1.23;;
18102;SDS011;9178;51.120;6.192;2022-07-29T14:24:28;1.85;;;1.33;;
18102;SDS011;9178;51.120;6.192;2022-07-29T14:26:54;1.85;;;1.15;;
18102;SDS011;9178;51.120;6.192;2022-07-29T14:29:23;2.42;;;1.50;;
18102;SDS011;9178;51.120;6.192;2022-07-29T14:31:50;2.72;;;1.55;;
18102;SDS011;9178;51.120;6.192;2022-07-29T14:34:17;2.50;;;1.20;;
18102;SDS011;9178;51.120;6.192;2022-07-29T14:36:44;1.27;;;1.17;;
18102;SDS011;9178;51.120;6.192;2022-07-29T14:39:11;2.72;;;1.50;;
18102;SDS011;9178;51.120;6.192;2022-07-29T14:41:38;1.83;;;1.25;;
18102;SDS011;9178;51.120;6.192;2022-07-29T14:44:05;1.60;;;1.50;;
18102;SDS011;9178;51.120;6.192;2022-07-29T14:46:33;2.75;;;1.42;;
18102;SDS011;9178;51.120;6.192;2022-07-29T14:49:00;2.28;;;1.30;;
18102;SDS011;9178;51.120;6.192;2022-07-29T14:51:26;2.50;;;1.48;;
18102;SDS011;9178;51.120;6.192;2022-07-29T14:53:53;1.90;;;1.30;;
18102;SDS011;9178;51.120;6.192;2022-07-29T14:56:21;1.83;;;1.10;;
18102;SDS011;9178;51.120;6.192;2022-07-29T14:58:48;2.00;;;1.48;;
18102;SDS011;9178;51.120;6.192;2022-07-29T15:01:15;2.38;;;1.52;;
18102;SDS011;9178;51.120;6.192;2022-07-29T15:03:43;3.38;;;1.75;;
18102;SDS011;9178;51.120;6.192;2022-07-29T15:06:10;2.50;;;1.20;;
18102;SDS011;9178;51.120;6.192;2022-07-29T15:08:37;2.58;;;1.52;;
18102;SDS011;9178;51.120;6.192;2022-07-29T15:11:04;1.88;;;1.30;;
18102;SDS011;9178;51.120;6.192;2022-07-29T15:13:31;1.50;;;1.40;;
18102;SDS011;9178;51.120;6.192;2022-07-29T15:15:59;2.45;;;1.48;;
18102;SDS011;9178;51.120;6.192;2022-07-29T15:18:26;1.63;;;1.40;;
18102;SDS011;9178;51.120;6.192;2022-07-29T15:20:54;4.63;;;1.73;;
18102;SDS011;9178;51.120;6.192;2022-07-29T15:23:20;1.95;;;1.27;;
18102;SDS011;9178;51.120;6.192;2022-07-29T15:25:47;5.00;;;1.90;;
18102;SDS011;9178;51.120;6.192;2022-07-29T15:28:14;2.60;;;1.55;;
18102;SDS011;9178;51.120;6.192;2022-07-29T15:30:41;4.20;;;1.25;;
18102;SDS011;9178;51.120;6.192;2022-07-29T15:33:08;1.88;;;1.38;;
18102;SDS011;9178;51.120;6.192;2022-07-29T15:35:35;3.03;;;1.20;;
18102;SDS011;9178;51.120;6.192;2022-07-29T15:38:03;1.33;;;0.82;;
18102;SDS011;9178;51.120;6.192;2022-07-29T15:40:30;1.60;;;1.30;;
18102;SDS011;9178;51.120;6.192;2022-07-29T15:42:58;2.47;;;1.55;;